createdAt,value
2017-11-10T00:00:54.915Z,151.8
2017-11-10T00:01:54.912Z,86.2
2017-11-10T00:02:55.011Z,57.5
2017-11-10T00:03:54.983Z,49.9
2017-11-10T00:04:54.949Z,47.1
2017-11-10T00:05:54.940Z,46
2017-11-10T00:06:54.916Z,44.2
2017-11-10T00:07:55.029Z,194.1
2017-11-10T00:15:31.751Z,154
2017-11-10T00:15:55.006Z,24.9
2017-11-10T00:16:54.957Z,23.6
2017-11-10T00:17:54.918Z,23
2017-11-10T00:18:54.930Z,30.2
2017-11-10T00:19:54.935Z,38.2
2017-11-10T00:20:54.960Z,41.8
2017-11-10T00:21:54.916Z,43.5
2017-11-10T00:22:54.920Z,44.3
2017-11-10T00:23:54.926Z,44.7
2017-11-10T00:24:55.049Z,44.9
2017-11-10T00:25:54.961Z,44.9
2017-11-10T00:26:54.978Z,45
2017-11-10T00:27:54.870Z,45
2017-11-10T00:28:54.927Z,45
2017-11-10T00:29:55.078Z,45
2017-11-10T00:30:54.905Z,45
2017-11-10T00:31:54.892Z,45
2017-11-10T00:32:54.913Z,45
2017-11-10T00:33:54.899Z,45
2017-11-10T00:34:55.003Z,45
2017-11-10T00:35:55.062Z,45
2017-11-10T00:36:54.944Z,45
2017-11-10T00:37:54.904Z,45
2017-11-10T00:38:54.947Z,45
2017-11-10T00:39:55.113Z,45
2017-11-10T00:40:54.888Z,45
2017-11-10T00:41:54.925Z,45
2017-11-10T00:42:54.949Z,45
2017-11-10T00:43:55.024Z,45
2017-11-10T00:44:55.042Z,45
2017-11-10T00:46:14.667Z,45
2017-11-10T00:46:55.034Z,45
2017-11-10T00:47:54.867Z,62.5
2017-11-10T00:48:54.961Z,106
2017-11-10T00:49:55.098Z,126.6
2017-11-10T00:50:54.952Z,123.6
2017-11-10T00:51:54.926Z,141.8
2017-11-10T00:52:54.888Z,25.6
2017-11-10T00:53:54.917Z,109.8
2017-11-10T00:54:55.009Z,322.7
2017-11-10T00:55:54.948Z,267.2
2017-11-10T00:56:54.948Z,183.1
2017-11-10T00:57:54.906Z,173.9
2017-11-10T00:58:54.986Z,145.1
2017-11-10T00:59:54.994Z,51.7
2017-11-10T01:00:54.931Z,34.4
2017-11-10T01:01:54.913Z,91
2017-11-10T01:02:54.931Z,116.7
2017-11-10T01:03:54.900Z,112.8
2017-11-10T01:04:55.185Z,97.2
2017-11-10T01:05:54.939Z,73.1
2017-11-10T01:06:54.915Z,55.2
2017-11-10T01:07:54.876Z,60.1
2017-11-10T01:08:54.884Z,78
2017-11-10T01:09:55.051Z,109
2017-11-10T01:10:54.992Z,132.3
2017-11-10T01:11:54.929Z,220.2
2017-11-10T01:12:54.938Z,210
2017-11-10T01:13:54.877Z,202.1
2017-11-10T01:14:54.929Z,202.9
2017-11-10T01:15:55.028Z,180.1
2017-11-10T01:16:54.895Z,112.7
2017-11-10T01:17:54.956Z,53.6
2017-11-10T01:18:54.924Z,23.1
2017-11-10T01:19:54.911Z,161.5
2017-11-10T01:20:55.014Z,137.2
2017-11-10T01:21:54.934Z,107.8
2017-11-10T01:22:54.876Z,67.3
2017-11-10T01:23:54.992Z,95.8
2017-11-10T01:24:54.914Z,115.4
2017-11-10T01:25:54.999Z,127.5
2017-11-10T01:26:54.945Z,121
2017-11-10T01:27:54.938Z,136.1
2017-11-10T01:28:54.933Z,135.4
2017-11-10T01:29:54.928Z,112.1
2017-11-10T01:30:54.985Z,82
2017-11-10T01:31:54.936Z,118
2017-11-10T01:32:54.880Z,128.3
2017-11-10T01:33:54.952Z,132.1
2017-11-10T01:34:54.911Z,133.7
2017-11-10T01:35:55.043Z,134.4
2017-11-10T01:36:54.969Z,134.7
2017-11-10T01:37:54.903Z,134
2017-11-10T01:38:54.910Z,113.2
2017-11-10T01:39:54.898Z,109.9
2017-11-10T01:40:54.964Z,122
2017-11-10T01:41:54.893Z,131.7
2017-11-10T01:42:54.962Z,132.1
2017-11-10T01:43:54.893Z,134
2017-11-10T01:44:54.959Z,134.3
2017-11-10T01:45:54.942Z,114.5
2017-11-10T01:46:54.994Z,130.8
2017-11-10T01:47:54.907Z,117.1
2017-11-10T01:48:54.877Z,101.9
2017-11-10T01:49:54.862Z,115.9
2017-11-10T01:50:54.965Z,124.3
2017-11-10T01:51:54.944Z,114
2017-11-10T01:52:54.907Z,112.1
2017-11-10T01:53:54.918Z,143.7
2017-11-10T01:54:54.901Z,163.4
2017-11-10T01:55:54.947Z,118.2
2017-11-10T01:56:54.881Z,90.8
2017-11-10T01:57:54.843Z,59.4
2017-11-10T01:58:54.970Z,93.2
2017-11-10T01:59:54.891Z,94.3
2017-11-10T02:00:54.996Z,95.7
2017-11-10T02:01:54.901Z,128.8
2017-11-10T02:02:54.945Z,188.8
2017-11-10T02:03:54.876Z,159.7
2017-11-10T02:04:54.919Z,136.8
2017-11-10T02:05:54.914Z,136
2017-11-10T02:06:54.922Z,136.5
2017-11-10T02:07:54.925Z,135.7
2017-11-10T02:08:54.921Z,133.4
2017-11-10T02:09:54.988Z,128.8
2017-11-10T02:10:54.946Z,107.7
2017-11-10T02:11:54.895Z,103.8
2017-11-10T02:12:54.868Z,103.2
2017-11-10T02:13:54.908Z,125.9
2017-11-10T02:14:54.841Z,129.2
2017-11-10T02:15:54.932Z,139.1
2017-11-10T02:16:54.904Z,153
2017-11-10T02:17:54.886Z,158.6
2017-11-10T02:18:54.904Z,142.4
2017-11-10T02:19:54.892Z,111.2
2017-11-10T02:20:55.024Z,130.3
2017-11-10T02:21:54.952Z,133.2
2017-11-10T02:22:54.911Z,152
2017-11-10T02:23:54.917Z,167.9
2017-11-10T02:24:54.875Z,175.5
2017-11-10T02:25:54.875Z,170.8
2017-11-10T02:26:54.895Z,175.2
2017-11-10T02:27:59.630Z,142.2
2017-11-10T02:28:54.884Z,148.8
2017-11-10T02:29:54.896Z,143.1
2017-11-10T02:30:54.945Z,140.5
2017-11-10T02:31:54.906Z,137.9
2017-11-10T02:32:54.892Z,114.9
2017-11-10T02:33:54.886Z,112.2
2017-11-10T02:34:55.016Z,115.8
2017-11-10T02:35:54.975Z,120.9
2017-11-10T02:36:54.866Z,131.1
2017-11-10T02:37:54.875Z,138.5
2017-11-10T02:38:54.885Z,132.5
2017-11-10T02:39:54.851Z,123.1
2017-11-10T02:40:54.972Z,128.9
2017-11-10T02:41:54.847Z,130.2
2017-11-10T02:42:54.901Z,128.8
2017-11-10T02:43:54.913Z,127.1
2017-11-10T02:44:54.909Z,109.4
2017-11-10T02:45:54.941Z,118.8
2017-11-10T02:46:54.897Z,128
2017-11-10T02:47:54.920Z,124.7
2017-11-10T02:48:54.915Z,121.4
2017-11-10T02:49:54.865Z,107.8
2017-11-10T02:50:54.921Z,111.4
2017-11-10T02:51:54.882Z,117.2
2017-11-10T02:52:54.867Z,107.1
2017-11-10T02:53:54.902Z,112.5
2017-11-10T02:54:54.865Z,101.3
2017-11-10T02:55:54.899Z,122.8
2017-11-10T02:56:54.880Z,129.3
2017-11-10T02:57:54.881Z,131.2
2017-11-10T02:58:54.937Z,129.1
2017-11-10T02:59:54.852Z,136.4
2017-11-10T03:00:54.985Z,142.8
2017-11-10T03:01:54.934Z,145.3
2017-11-10T03:02:54.889Z,134
2017-11-10T03:03:55.386Z,130.7
2017-11-10T03:04:54.876Z,120.2
2017-11-10T03:05:54.868Z,118.6
2017-11-10T03:06:54.943Z,115.6
2017-11-10T03:07:54.809Z,121.3
2017-11-10T03:08:54.928Z,115
2017-11-10T03:09:54.922Z,125.7
2017-11-10T03:10:54.888Z,134.4
2017-11-10T03:11:54.965Z,118.8
2017-11-10T03:12:54.887Z,119.9
2017-11-10T03:13:54.799Z,108.4
2017-11-10T03:14:54.846Z,122.5
2017-11-10T03:15:54.931Z,118.4
2017-11-10T03:16:54.996Z,143.5
2017-11-10T03:17:54.866Z,189.3
2017-11-10T03:18:54.863Z,117.6
2017-11-10T03:19:54.821Z,81.4
2017-11-10T03:20:54.847Z,122.9
2017-11-10T03:21:54.916Z,132.8
2017-11-10T03:22:54.842Z,145.8
2017-11-10T03:23:54.824Z,144.4
2017-11-10T03:24:54.919Z,138.3
2017-11-10T03:25:54.885Z,137.5
2017-11-10T03:26:54.934Z,136.1
2017-11-10T03:27:54.904Z,111.8
2017-11-10T03:28:54.856Z,150.6
2017-11-10T03:29:54.848Z,138.8
2017-11-10T03:30:54.847Z,136.6
2017-11-10T03:31:54.914Z,142.1
2017-11-10T03:32:54.828Z,142.8
2017-11-10T03:33:54.905Z,138.1
2017-11-10T03:34:54.863Z,138
2017-11-10T03:35:54.874Z,145.2
2017-11-10T03:36:55.016Z,162.9
2017-11-10T03:37:54.841Z,156.4
2017-11-10T03:38:54.840Z,160.6
2017-11-10T03:39:54.917Z,167.8
2017-11-10T03:40:54.844Z,189.2
2017-11-10T03:41:54.941Z,168.9
2017-11-10T03:42:54.831Z,152.8
2017-11-10T03:43:54.826Z,149.5
2017-11-10T03:44:54.870Z,163.4
2017-11-10T03:45:54.846Z,173.3
2017-11-10T03:46:54.918Z,160.9
2017-11-10T03:47:54.869Z,172.2
2017-11-10T03:48:54.824Z,154.3
2017-11-10T03:49:54.836Z,152.4
2017-11-10T03:50:54.812Z,167.5
2017-11-10T03:51:54.823Z,174.9
2017-11-10T03:52:54.849Z,178.2
2017-11-10T03:53:54.874Z,179.2
2017-11-10T03:54:54.857Z,184.6
2017-11-10T03:55:54.828Z,171.3
2017-11-10T03:56:54.911Z,172.7
2017-11-10T03:57:54.913Z,164.4
2017-11-10T03:58:54.862Z,158.6
2017-11-10T03:59:54.828Z,175.6
2017-11-10T04:00:54.782Z,178.3
2017-11-10T04:01:54.878Z,172.4
2017-11-10T04:02:54.928Z,174.6
2017-11-10T04:03:54.817Z,225.1
2017-11-10T04:04:54.859Z,205.2
2017-11-10T04:05:54.786Z,176.9
2017-11-10T04:06:54.808Z,163.7
2017-11-10T04:07:56.284Z,152.1
2017-11-10T04:08:54.822Z,133.3
2017-11-10T04:09:54.846Z,143.4
2017-11-10T04:10:54.807Z,132.5
2017-11-10T04:11:54.855Z,131.9
2017-11-10T04:12:54.883Z,86.2
2017-11-10T04:13:54.873Z,91.8
2017-11-10T04:14:54.844Z,321
2017-11-10T04:15:54.832Z,292
2017-11-10T04:16:54.816Z,150.6
2017-11-10T04:17:54.900Z,136.2
2017-11-10T04:18:54.803Z,142.7
2017-11-10T04:19:54.817Z,109
2017-11-10T04:20:54.882Z,104.4
2017-11-10T04:21:54.825Z,115.3
2017-11-10T04:22:54.924Z,86.5
2017-11-10T04:23:54.847Z,72.4
2017-11-10T04:24:54.902Z,83.9
2017-11-10T04:25:54.856Z,94.9
2017-11-10T04:26:54.830Z,153
2017-11-10T04:27:55.056Z,153.9
2017-11-10T04:28:54.827Z,141.7
2017-11-10T04:29:54.807Z,164.2
2017-11-10T04:30:54.899Z,172.1
2017-11-10T04:31:54.782Z,198.3
2017-11-10T04:32:54.873Z,145.8
2017-11-10T04:33:54.869Z,142.3
2017-11-10T04:34:54.815Z,168.7
2017-11-10T04:35:54.819Z,160.2
2017-11-10T04:36:54.817Z,29.7
2017-11-10T04:37:54.941Z,42.3
2017-11-10T04:38:54.799Z,37.9
2017-11-10T04:39:54.838Z,28.4
2017-11-10T04:41:01.255Z,105.9
2017-11-10T04:42:00.995Z,117.6
2017-11-10T04:42:59.680Z,126.4
2017-11-10T04:43:59.987Z,120.6
2017-11-10T04:45:02.482Z,115.7
2017-11-10T04:45:54.824Z,122.6
2017-11-10T04:46:54.816Z,147.6
2017-11-10T04:47:54.837Z,158.1
2017-11-10T04:48:55.424Z,136.6
2017-11-10T04:49:54.741Z,126.9
2017-11-10T04:50:54.862Z,122.7
2017-11-10T04:51:54.798Z,112.2
2017-11-10T04:52:54.941Z,117.7
2017-11-10T04:53:54.785Z,117.1
2017-11-10T04:54:54.843Z,122.2
2017-11-10T04:55:54.899Z,121.1
2017-11-10T04:56:54.816Z,116
2017-11-10T04:57:54.883Z,115
2017-11-10T04:58:54.872Z,112.8
2017-11-10T04:59:54.763Z,116.9
2017-11-10T05:00:54.805Z,119.1
2017-11-10T05:01:54.861Z,124
2017-11-10T05:02:54.855Z,115.8
2017-11-10T05:03:54.898Z,116.7
2017-11-10T05:04:54.840Z,124.7
2017-11-10T05:05:54.923Z,130.8
2017-11-10T05:06:54.805Z,123
2017-11-10T05:07:54.897Z,126.7
2017-11-10T05:08:54.802Z,120.3
2017-11-10T05:09:54.763Z,115.3
2017-11-10T05:10:54.916Z,126.1
2017-11-10T05:11:54.785Z,136.6
2017-11-10T05:12:54.839Z,142.4
2017-11-10T05:13:54.813Z,137.5
2017-11-10T05:14:54.874Z,149.5
2017-11-10T05:15:54.804Z,146.6
2017-11-10T05:16:54.772Z,143
2017-11-10T05:17:54.915Z,133.1
2017-11-10T05:18:54.851Z,108.2
2017-11-10T05:19:54.770Z,122.9
2017-11-10T05:20:54.816Z,124.8
2017-11-10T05:21:54.811Z,120
2017-11-10T05:22:54.844Z,126.5
2017-11-10T05:23:54.811Z,129.4
2017-11-10T05:24:54.872Z,141.8
2017-11-10T05:25:54.757Z,135.6
2017-11-10T05:26:55.003Z,129.2
2017-11-10T05:27:54.991Z,139.7
2017-11-10T05:28:54.786Z,138.8
2017-11-10T05:29:54.802Z,129.4
2017-11-10T05:30:54.802Z,133.8
2017-11-10T05:31:54.794Z,141.1
2017-11-10T05:32:54.896Z,130.4
2017-11-10T05:33:54.823Z,125
2017-11-10T05:34:54.804Z,119.3
2017-11-10T05:35:54.842Z,126.8
2017-11-10T05:36:54.865Z,122.4
2017-11-10T05:37:54.998Z,127.8
2017-11-10T05:38:54.827Z,140.1
2017-11-10T05:39:54.806Z,136.7
2017-11-10T05:40:54.789Z,135.6
2017-11-10T05:41:55.879Z,132.1
2017-11-10T05:42:55.085Z,113.7
2017-11-10T05:43:54.788Z,124.6
2017-11-10T05:44:54.724Z,134.4
2017-11-10T05:45:54.813Z,130
2017-11-10T05:46:54.801Z,125.7
2017-11-10T05:47:54.995Z,129.3
2017-11-10T05:48:54.836Z,134.3
2017-11-10T05:49:54.790Z,137.2
2017-11-10T05:50:54.803Z,133.4
2017-11-10T05:51:54.818Z,129.1
2017-11-10T05:52:54.846Z,130.9
2017-11-10T05:53:54.814Z,129.5
2017-11-10T05:54:54.754Z,128.8
2017-11-10T05:55:54.760Z,132.4
2017-11-10T05:56:54.980Z,134.5
2017-11-10T05:57:54.777Z,124.5
2017-11-10T05:58:54.899Z,124.3
2017-11-10T05:59:56.162Z,121.8
2017-11-10T06:00:56.923Z,129.4
2017-11-10T06:01:55.326Z,134.5
2017-11-10T06:02:54.853Z,133.4
2017-11-10T06:03:54.901Z,136.6
2017-11-10T06:04:54.832Z,137.3
2017-11-10T06:05:54.851Z,134.4
2017-11-10T06:06:54.767Z,141.8
2017-11-10T06:07:54.771Z,141.3
2017-11-10T06:08:54.898Z,128
2017-11-10T06:09:54.806Z,130.4
2017-11-10T06:10:54.803Z,135.9
2017-11-10T06:11:54.780Z,130.2
2017-11-10T06:12:54.747Z,125.2
2017-11-10T06:13:54.866Z,136.6
2017-11-10T06:14:54.770Z,132.1
2017-11-10T06:15:54.825Z,131.1
2017-11-10T06:16:54.938Z,133.4
2017-11-10T06:17:54.757Z,132.8
2017-11-10T06:18:57.247Z,126.8
2017-11-10T06:19:54.803Z,134.8
2017-11-10T06:20:54.799Z,118.4
2017-11-10T06:21:54.784Z,122.2
2017-11-10T06:22:54.773Z,126.5
2017-11-10T06:23:54.920Z,130.7
2017-11-10T06:24:54.763Z,129.7
2017-11-10T06:25:54.772Z,128.7
2017-11-10T06:26:57.715Z,123.6
2017-11-10T06:27:54.780Z,130.2
2017-11-10T06:28:54.801Z,124.6
2017-11-10T06:29:54.809Z,128.1
2017-11-10T06:30:54.766Z,124.9
2017-11-10T06:31:54.764Z,129.3
2017-11-10T06:32:54.845Z,132.3
2017-11-10T06:33:54.825Z,132
2017-11-10T06:34:55.738Z,135.4
2017-11-10T06:35:54.766Z,132.2
2017-11-10T06:36:55.843Z,128.3
2017-11-10T06:37:54.784Z,121.2
2017-11-10T06:38:54.867Z,130.1
2017-11-10T06:39:54.744Z,127.4
2017-11-10T06:40:54.710Z,130.7
2017-11-10T06:41:54.904Z,122.6
2017-11-10T06:42:57.826Z,122.1
2017-11-10T06:43:54.850Z,128.6
2017-11-10T06:44:54.804Z,137.3
2017-11-10T06:45:54.753Z,135.5
2017-11-10T06:46:54.797Z,135.2
2017-11-10T06:47:54.776Z,141
2017-11-10T06:48:54.811Z,139.9
2017-11-10T06:49:54.893Z,140
2017-11-10T06:50:54.751Z,140.1
2017-11-10T06:51:54.781Z,133.2
2017-11-10T06:52:54.760Z,130.1
2017-11-10T06:53:54.851Z,129.9
2017-11-10T06:54:54.733Z,130.6
2017-11-10T06:55:54.785Z,132
2017-11-10T06:56:54.726Z,125.1
2017-11-10T06:57:54.691Z,120
2017-11-10T06:58:55.926Z,132.1
2017-11-10T06:59:54.758Z,130.4
2017-11-10T07:00:54.760Z,129.4
2017-11-10T07:01:54.740Z,121.4
2017-11-10T07:02:54.746Z,131.6
2017-11-10T07:03:55.715Z,129.8
2017-11-10T07:04:54.834Z,132.4
2017-11-10T07:05:54.782Z,130.5
2017-11-10T07:06:54.774Z,127.5
2017-11-10T07:07:54.766Z,124.5
2017-11-10T07:08:54.856Z,122
2017-11-10T07:09:54.738Z,119.4
2017-11-10T07:10:54.799Z,126.2
2017-11-10T07:11:54.738Z,127.5
2017-11-10T07:12:54.760Z,127.9
2017-11-10T07:13:54.747Z,132.3
2017-11-10T07:14:54.823Z,134.6
2017-11-10T07:15:55.282Z,134.9
2017-11-10T07:16:54.884Z,132.6
2017-11-10T07:17:56.674Z,134.5
2017-11-10T07:18:56.832Z,132.5
2017-11-10T07:19:55.995Z,134.2
2017-11-10T07:20:55.119Z,134
2017-11-10T07:21:55.046Z,140.2
2017-11-10T07:22:55.164Z,124.3
2017-11-10T07:23:57.961Z,127.4
2017-11-10T07:24:55.378Z,127.6
2017-11-10T07:25:55.695Z,120
2017-11-10T07:26:55.236Z,118.2
2017-11-10T07:28:01.891Z,125.1
2017-11-10T07:28:54.828Z,130.1
2017-11-10T07:29:58.513Z,133.7
2017-11-10T07:30:55.543Z,129.9
2017-11-10T07:31:55.942Z,132
2017-11-10T07:32:54.862Z,126.3
2017-11-10T07:33:57.767Z,123.4
2017-11-10T07:34:56.504Z,127.1
2017-11-10T07:35:55.870Z,127.1
2017-11-10T07:36:55.544Z,132.3
2017-11-10T07:37:55.914Z,115.1
2017-11-10T07:38:54.733Z,119.8
2017-11-10T07:39:55.771Z,130.2
2017-11-10T07:40:55.424Z,132.2
2017-11-10T07:41:56.621Z,129
2017-11-10T07:42:54.976Z,130.4
2017-11-10T07:43:55.495Z,129.8
2017-11-10T07:44:56.420Z,133.2
2017-11-10T07:45:56.236Z,139.7
2017-11-10T07:46:57.571Z,131.1
2017-11-10T07:47:56.113Z,132.9
2017-11-10T07:48:56.512Z,132.2
2017-11-10T07:49:54.893Z,130.2
2017-11-10T07:50:55.305Z,134.5
2017-11-10T07:51:55.407Z,134
2017-11-10T07:52:54.704Z,131.9
2017-11-10T07:53:54.804Z,130.6
2017-11-10T07:54:54.824Z,133
2017-11-10T07:55:54.735Z,136.1
2017-11-10T07:56:55.311Z,131.2
2017-11-10T07:57:54.711Z,127.5
2017-11-10T07:58:54.765Z,121.5
2017-11-10T07:59:55.038Z,122.7
2017-11-10T08:00:58.543Z,123
2017-11-10T08:01:54.698Z,130.1
2017-11-10T08:02:54.765Z,137.2
2017-11-10T08:03:54.842Z,138.2
2017-11-10T08:04:54.804Z,135
2017-11-10T08:05:54.755Z,133.6
2017-11-10T08:06:54.786Z,143.8
2017-11-10T08:07:55.599Z,143.3
2017-11-10T08:08:54.713Z,132.3
2017-11-10T08:09:54.740Z,130.9
2017-11-10T08:10:54.773Z,130.2
2017-11-10T08:11:54.777Z,117.9
2017-11-10T08:12:54.742Z,121.6
2017-11-10T08:13:54.732Z,128.3
2017-11-10T08:14:54.711Z,127.7
2017-11-10T08:15:54.767Z,132.4
2017-11-10T08:16:54.744Z,140.2
2017-11-10T08:17:54.696Z,133.1
2017-11-10T08:18:54.714Z,134
2017-11-10T08:19:54.696Z,137.3
2017-11-10T08:20:54.787Z,134.9
2017-11-10T08:21:54.724Z,133.6
2017-11-10T08:22:54.718Z,131.8
2017-11-10T08:23:54.718Z,133.2
2017-11-10T08:24:54.736Z,134.4
2017-11-10T08:25:59.139Z,126.8
2017-11-10T08:26:54.712Z,115.4
2017-11-10T08:27:54.734Z,121.8
2017-11-10T08:28:54.712Z,127.8
2017-11-10T08:29:54.737Z,122.6
2017-11-10T08:30:54.717Z,129.8
2017-11-10T08:31:54.712Z,132.6
2017-11-10T08:32:54.756Z,133.6
2017-11-10T08:33:54.710Z,131
2017-11-10T08:34:54.696Z,134.2
2017-11-10T08:35:54.757Z,137.3
2017-11-10T08:36:54.756Z,132.3
2017-11-10T08:37:54.729Z,139
2017-11-10T08:38:54.654Z,134.8
2017-11-10T08:39:54.801Z,135.5
2017-11-10T08:40:54.809Z,138.4
2017-11-10T08:41:54.711Z,126.2
2017-11-10T08:42:54.785Z,120.9
2017-11-10T08:43:54.672Z,119
2017-11-10T08:44:54.718Z,120.2
2017-11-10T08:45:54.715Z,126.8
2017-11-10T08:46:54.692Z,141.3
2017-11-10T08:47:54.718Z,142
2017-11-10T08:48:54.695Z,104.7
2017-11-10T08:49:54.692Z,103
2017-11-10T08:50:54.765Z,120.4
2017-11-10T08:51:54.713Z,105.6
2017-11-10T08:52:54.665Z,119.5
2017-11-10T08:53:54.766Z,109.8
2017-11-10T08:54:54.672Z,94.8
2017-11-10T08:55:54.797Z,119.5
2017-11-10T08:56:54.701Z,137.5
2017-11-10T08:57:54.840Z,134.1
2017-11-10T08:58:54.685Z,113.4
2017-11-10T08:59:54.764Z,113.9
2017-11-10T09:00:54.781Z,123.6
2017-11-10T09:01:54.753Z,111.7
2017-11-10T09:02:54.743Z,116
2017-11-10T09:03:54.787Z,153.4
2017-11-10T09:04:54.693Z,153.7
2017-11-10T09:05:54.788Z,146.5
2017-11-10T09:06:54.694Z,160.6
2017-11-10T09:07:54.730Z,173.4
2017-11-10T09:08:54.687Z,179
2017-11-10T09:09:54.692Z,156.5
2017-11-10T09:10:54.822Z,145.2
2017-11-10T09:11:54.694Z,143.4
2017-11-10T09:12:54.735Z,150.8
2017-11-10T09:13:54.700Z,145.6
2017-11-10T09:14:54.642Z,139.4
2017-11-10T09:15:54.867Z,131.8
2017-11-10T09:16:54.677Z,133.1
2017-11-10T09:17:54.714Z,130
2017-11-10T09:18:54.684Z,115.4
2017-11-10T09:19:54.723Z,128.2
2017-11-10T09:20:54.772Z,133.4
2017-11-10T09:21:54.774Z,134.7
2017-11-10T09:22:54.715Z,136.5
2017-11-10T09:23:54.682Z,123.1
2017-11-10T09:24:54.695Z,128.4
2017-11-10T09:25:54.733Z,136
2017-11-10T09:26:54.745Z,144.6
2017-11-10T09:27:54.728Z,132.6
2017-11-10T09:28:54.712Z,119.3
2017-11-10T09:29:54.727Z,107.7
2017-11-10T09:30:54.670Z,116
2017-11-10T09:31:54.704Z,118.8
2017-11-10T09:32:54.716Z,114.2
2017-11-10T09:33:54.680Z,128.4
2017-11-10T09:34:54.666Z,128.9
2017-11-10T09:35:54.687Z,128.5
2017-11-10T09:36:54.807Z,132.1
2017-11-10T09:37:54.651Z,129.1
2017-11-10T09:38:54.666Z,128.5
2017-11-10T09:39:54.713Z,122.5
2017-11-10T09:40:54.676Z,122.9
2017-11-10T09:41:54.753Z,126.4
2017-11-10T09:42:54.687Z,114.1
2017-11-10T09:43:54.660Z,130.2
2017-11-10T09:44:54.694Z,127
2017-11-10T09:45:54.697Z,114.9
2017-11-10T09:46:54.739Z,124.2
2017-11-10T09:47:54.690Z,115.9
2017-11-10T09:48:54.701Z,150.1
2017-11-10T09:49:54.696Z,143.4
2017-11-10T09:50:54.669Z,32.6
2017-11-10T09:51:54.771Z,110
2017-11-10T09:52:54.643Z,113.6
2017-11-10T09:53:54.734Z,121.6
2017-11-10T09:54:54.725Z,127.6
2017-11-10T09:55:54.712Z,134.5
2017-11-10T09:56:54.727Z,133.4
2017-11-10T09:57:54.669Z,128.4
2017-11-10T09:58:54.676Z,122.1
2017-11-10T09:59:54.634Z,127.2
2017-11-10T10:00:54.681Z,128.9
2017-11-10T10:01:54.693Z,127.6
2017-11-10T10:02:54.677Z,130.4
2017-11-10T10:03:54.670Z,106.2
2017-11-10T10:04:54.714Z,118.5
2017-11-10T10:05:54.759Z,132.5
2017-11-10T10:06:54.734Z,120.8
2017-11-10T10:07:54.636Z,124.4
2017-11-10T10:08:54.670Z,123.5
2017-11-10T10:09:54.649Z,116
2017-11-10T10:10:54.701Z,116.7
2017-11-10T10:11:54.838Z,108.2
2017-11-10T10:12:54.734Z,113.7
2017-11-10T10:13:54.660Z,120.2
2017-11-10T10:14:54.668Z,131.5
2017-11-10T10:15:54.668Z,134.2
2017-11-10T10:16:54.737Z,128.8
2017-11-10T10:17:54.640Z,124.5
2017-11-10T10:18:54.648Z,124.5
2017-11-10T10:19:54.740Z,127.9
2017-11-10T10:20:54.664Z,138.5
2017-11-10T10:21:54.707Z,121.5
2017-11-10T10:22:54.684Z,122.5
2017-11-10T10:23:54.691Z,124.9
2017-11-10T10:24:54.665Z,132.2
2017-11-10T10:25:54.765Z,128.4
2017-11-10T10:26:54.714Z,129
2017-11-10T10:27:54.692Z,117
2017-11-10T10:28:54.630Z,127.2
2017-11-10T10:29:54.652Z,129.2
2017-11-10T10:30:54.681Z,128
2017-11-10T10:31:54.822Z,120.1
2017-11-10T10:32:54.668Z,116.1
2017-11-10T10:33:54.687Z,122
2017-11-10T10:34:54.704Z,124.9
2017-11-10T10:35:54.700Z,112.4
2017-11-10T10:36:54.744Z,126
2017-11-10T10:37:54.608Z,133
2017-11-10T10:38:54.670Z,131.3
2017-11-10T10:39:54.641Z,135.7
2017-11-10T10:40:54.649Z,134
2017-11-10T10:41:54.838Z,127.7
2017-11-10T10:42:54.665Z,132.2
2017-11-10T10:43:54.696Z,131.6
2017-11-10T10:44:54.649Z,118.2
2017-11-10T10:45:54.703Z,121.7
2017-11-10T10:46:54.764Z,124.2
2017-11-10T10:47:55.290Z,126.6
2017-11-10T10:48:54.666Z,123.5
2017-11-10T10:49:54.696Z,124.8
2017-11-10T10:50:54.688Z,127.5
2017-11-10T10:51:54.749Z,127.6
2017-11-10T10:52:54.669Z,132.8
2017-11-10T10:53:54.701Z,132.4
2017-11-10T10:54:54.635Z,130.3
2017-11-10T10:55:54.717Z,132.1
2017-11-10T10:56:54.731Z,120.3
2017-11-10T10:57:54.645Z,125.9
2017-11-10T10:58:54.610Z,129.9
2017-11-10T10:59:54.745Z,123.4
2017-11-10T11:00:54.641Z,131.3
2017-11-10T11:01:54.703Z,124.5
2017-11-10T11:02:54.679Z,124.6
2017-11-10T11:03:54.604Z,132.7
2017-11-10T11:04:54.605Z,139.4
2017-11-10T11:05:54.691Z,137.8
2017-11-10T11:06:54.779Z,137.8
2017-11-10T11:07:54.671Z,142.5
2017-11-10T11:08:54.652Z,142.6
2017-11-10T11:09:54.661Z,135.2
2017-11-10T11:10:54.680Z,125.8
2017-11-10T11:11:54.710Z,126.1
2017-11-10T11:12:54.699Z,123.9
2017-11-10T11:13:54.662Z,130.4
2017-11-10T11:14:54.628Z,133.4
2017-11-10T11:15:54.680Z,135.1
2017-11-10T11:16:54.688Z,135.8
2017-11-10T11:17:54.643Z,135.5
2017-11-10T11:18:54.660Z,129.6
2017-11-10T11:19:54.648Z,129.4
2017-11-10T11:20:54.668Z,129.9
2017-11-10T11:21:54.752Z,131.9
2017-11-10T11:22:54.651Z,151.2
2017-11-10T11:23:54.644Z,133
2017-11-10T11:24:54.636Z,127.2
2017-11-10T11:25:54.677Z,125.5
2017-11-10T11:26:54.723Z,132.2
2017-11-10T11:27:54.697Z,127.5
2017-11-10T11:28:54.663Z,135.5
2017-11-10T11:29:54.625Z,134.5
2017-11-10T11:30:54.622Z,127.5
2017-11-10T11:31:54.643Z,128.5
2017-11-10T11:32:54.748Z,127.8
2017-11-10T11:33:54.610Z,173.3
2017-11-10T11:34:54.660Z,169.5
2017-11-10T11:35:54.645Z,179.5
2017-11-10T11:36:54.645Z,144.2
2017-11-10T11:37:54.783Z,159.9
2017-11-10T11:38:54.642Z,134.3
2017-11-10T11:39:54.727Z,130.9
2017-11-10T11:40:54.656Z,131.2
2017-11-10T11:41:54.669Z,133.1
2017-11-10T11:42:54.716Z,134.4
2017-11-10T11:43:54.673Z,134
2017-11-10T11:44:54.711Z,136.5
2017-11-10T11:45:54.653Z,138.2
2017-11-10T11:46:54.689Z,138.3
2017-11-10T11:47:54.683Z,126.1
2017-11-10T11:48:54.649Z,121.3
2017-11-10T11:49:54.606Z,116.4
2017-11-10T11:50:54.627Z,116.4
2017-11-10T11:51:54.635Z,123
2017-11-10T11:52:54.674Z,128.7
2017-11-10T11:53:54.642Z,126
2017-11-10T11:54:54.635Z,119.2
2017-11-10T11:55:54.660Z,117.5
2017-11-10T11:56:54.656Z,108.2
2017-11-10T11:57:54.704Z,98.7
2017-11-10T11:58:54.657Z,112.8
2017-11-10T11:59:54.644Z,122.1
2017-11-10T12:00:54.594Z,135.1
2017-11-10T12:01:54.626Z,140
2017-11-10T12:02:54.742Z,147.1
2017-11-10T12:03:54.637Z,124.1
2017-11-10T12:04:54.583Z,124.6
2017-11-10T12:05:54.653Z,136.8
2017-11-10T12:06:54.634Z,113.6
2017-11-10T12:07:54.812Z,123.7
2017-11-10T12:08:54.639Z,121.1
2017-11-10T12:09:54.641Z,124.9
2017-11-10T12:10:54.698Z,143.3
2017-11-10T12:11:54.579Z,140.7
2017-11-10T12:12:54.715Z,122.1
2017-11-10T12:13:54.663Z,124.8
2017-11-10T12:14:54.716Z,142
2017-11-10T12:15:54.638Z,144.2
2017-11-10T12:16:54.640Z,151.4
2017-11-10T12:17:54.655Z,154.3
2017-11-10T12:18:54.695Z,37.6
2017-11-10T12:19:54.702Z,106.1
2017-11-10T12:20:54.635Z,83.1
2017-11-10T12:21:54.671Z,123.5
2017-11-10T12:22:54.641Z,119.6
2017-11-10T12:23:54.703Z,130
2017-11-10T12:24:54.648Z,133.3
2017-11-10T12:25:54.656Z,134.1
2017-11-10T12:26:54.629Z,119
2017-11-10T12:27:54.658Z,107.4
2017-11-10T12:28:54.716Z,100.8
2017-11-10T12:29:54.600Z,120.8
2017-11-10T12:30:54.639Z,149.8
2017-11-10T12:31:54.597Z,118.9
2017-11-10T12:32:54.583Z,140.4
2017-11-10T12:33:54.690Z,129.4
2017-11-10T12:34:54.648Z,118.1
2017-11-10T12:35:54.663Z,126.1
2017-11-10T12:36:54.658Z,132.6
2017-11-10T12:37:54.625Z,128.8
2017-11-10T12:38:54.743Z,128
2017-11-10T12:39:54.668Z,130.7
2017-11-10T12:40:54.584Z,141.1
2017-11-10T12:41:54.643Z,125.3
2017-11-10T12:42:54.628Z,132.9
2017-11-10T12:43:54.649Z,132.6
2017-11-10T12:44:54.677Z,143.4
2017-11-10T12:45:54.652Z,149.5
2017-11-10T12:46:54.616Z,165.8
2017-11-10T12:47:54.656Z,149.3
2017-11-10T12:48:54.676Z,139.3
2017-11-10T12:49:54.659Z,124
2017-11-10T12:50:54.577Z,120.4
2017-11-10T12:51:54.642Z,119.5
2017-11-10T12:52:54.662Z,120.5
2017-11-10T12:53:54.697Z,153.9
2017-11-10T12:54:54.607Z,158.2
2017-11-10T12:55:54.622Z,149.6
2017-11-10T12:56:54.687Z,142.4
2017-11-10T12:57:54.681Z,147.1
2017-11-10T12:58:54.790Z,140.8
2017-11-10T12:59:55.111Z,136
2017-11-10T13:00:54.692Z,130.4
2017-11-10T13:01:54.627Z,103.4
2017-11-10T13:02:54.674Z,118
2017-11-10T13:03:54.678Z,124.6
2017-11-10T13:04:54.659Z,127.7
2017-11-10T13:05:54.588Z,131.6
2017-11-10T13:06:54.619Z,105.1
2017-11-10T13:07:54.626Z,106.2